Terminal Aerodrome Forecast
Issued by NWS Brownsville, TX

Home | Current Version | Previous Version | Text Only | Print | Product List | Glossary On
Versions: 1 2 3 4 5 6 7 8 9 10 11 12 13 14 15 16 17
000
FTUS44 KBRO 311721
TAFMFE
TAF
KMFE 311721Z 3118/0118 14018G26KT P6SM BKN035
     FM010300 15010KT P6SM BKN030
     FM010600 16007KT P6SM VCSH BKN025
     FM011300 19005KT P6SM SCT035=

USA.gov is the U.S. government's official web portal to all federal, state and local government web resources and services.